createdAt,value
2019-01-11T00:02:45.035Z,41.50
2019-01-11T00:07:48.780Z,41.50
2019-01-11T00:12:52.523Z,41.30
2019-01-11T00:17:56.343Z,41.30
2019-01-11T00:23:00.011Z,41.20
2019-01-11T00:28:03.780Z,41.10
2019-01-11T00:33:07.580Z,41.00
2019-01-11T00:38:11.381Z,40.80
2019-01-11T00:43:15.569Z,40.70
2019-01-11T00:48:19.354Z,40.70
2019-01-11T00:53:23.067Z,40.70
2019-01-11T00:58:26.710Z,40.70
2019-01-11T01:03:30.466Z,40.50
2019-01-11T01:08:35.067Z,40.40
2019-01-11T01:13:38.792Z,40.40
2019-01-11T01:18:42.485Z,40.20
2019-01-11T01:23:46.239Z,40.30
2019-01-11T01:28:50.036Z,40.20
2019-01-11T01:33:54.030Z,40.10
2019-01-11T01:38:57.700Z,40.10
2019-01-11T01:44:01.370Z,40.00
2019-01-11T01:49:05.136Z,39.80
2019-01-11T01:54:08.849Z,39.90
2019-01-11T01:59:12.606Z,39.80
2019-01-11T02:04:16.284Z,39.70
2019-01-11T02:09:19.939Z,39.70
2019-01-11T02:14:23.671Z,39.70
2019-01-11T02:19:32.952Z,39.60
2019-01-11T02:24:32.968Z,39.40
2019-01-11T02:29:36.738Z,39.50
2019-01-11T02:34:40.431Z,39.50
2019-01-11T02:39:44.507Z,39.40
2019-01-11T02:44:48.513Z,39.30
2019-01-11T02:49:52.611Z,39.40
2019-01-11T02:54:56.298Z,39.30
2019-01-11T03:00:00.074Z,39.10
2019-01-11T03:05:03.777Z,39.00
2019-01-11T03:10:11.202Z,39.20
2019-01-11T03:15:15.437Z,39.10
2019-01-11T03:20:19.321Z,39.10
2019-01-11T03:25:23.126Z,38.90
2019-01-11T03:30:26.903Z,39.00
2019-01-11T03:35:30.782Z,38.90
2019-01-11T03:40:34.520Z,38.90
2019-01-11T03:45:38.252Z,38.90
2019-01-11T03:50:42.046Z,38.80
2019-01-11T03:55:45.759Z,38.80
2019-01-11T04:00:49.438Z,38.70
2019-01-11T04:05:53.205Z,38.60
2019-01-11T04:10:56.952Z,38.60
2019-01-11T04:16:00.628Z,38.70
2019-01-11T04:21:04.386Z,38.60
2019-01-11T04:26:08.112Z,38.50
2019-01-11T04:31:11.751Z,38.50
2019-01-11T04:36:15.430Z,38.60
2019-01-11T04:41:19.173Z,38.60
2019-01-11T04:46:22.918Z,38.50
2019-01-11T04:51:26.699Z,38.50
2019-01-11T04:56:30.486Z,38.40
2019-01-11T05:01:34.297Z,38.50
2019-01-11T05:06:38.193Z,38.40
2019-01-11T05:11:41.952Z,38.50
2019-01-11T05:16:45.733Z,38.60
2019-01-11T05:21:49.493Z,38.60
2019-01-11T05:26:53.381Z,38.50
2019-01-11T05:31:57.270Z,38.50
2019-01-11T05:37:01.059Z,38.50
2019-01-11T05:42:04.864Z,38.50
2019-01-11T05:47:08.843Z,38.50
2019-01-11T05:52:12.547Z,38.40
2019-01-11T05:57:16.707Z,38.50
2019-01-11T06:02:20.777Z,38.40
2019-01-11T06:07:27.043Z,38.40
2019-01-11T06:12:30.897Z,38.30
2019-01-11T06:17:34.724Z,38.40
2019-01-11T06:22:38.427Z,38.40
2019-01-11T06:27:42.183Z,38.40
2019-01-11T06:32:45.862Z,38.40
2019-01-11T06:37:49.617Z,38.40
2019-01-11T06:42:53.357Z,38.40
2019-01-11T06:47:57.193Z,38.20
2019-01-11T06:53:01.237Z,38.40
2019-01-11T06:58:04.892Z,38.20
2019-01-11T07:03:08.610Z,38.30
2019-01-11T07:08:12.339Z,38.40
2019-01-11T07:13:16.318Z,38.10
2019-01-11T07:18:19.975Z,38.20
2019-01-11T07:23:23.812Z,38.20
2019-01-11T07:28:27.968Z,38.20
2019-01-11T07:33:31.733Z,38.20
2019-01-11T07:38:35.503Z,38.10
2019-01-11T07:43:39.223Z,38.10
2019-01-11T07:48:43.112Z,37.90
2019-01-11T07:53:46.939Z,37.90
2019-01-11T07:58:50.800Z,37.90
2019-01-11T08:03:54.680Z,38.10
2019-01-11T08:08:58.499Z,37.90
2019-01-11T08:14:02.279Z,37.80
2019-01-11T08:19:06.178Z,38.90
2019-01-11T08:24:10.023Z,38.50
2019-01-11T08:29:13.884Z,37.00
2019-01-11T08:34:17.779Z,35.50
2019-01-11T08:39:21.611Z,29.30
2019-01-11T08:44:25.423Z,32.90
2019-01-11T08:49:29.158Z,35.70
2019-01-11T08:54:32.886Z,34.00
2019-01-11T08:59:36.906Z,34.30
2019-01-11T09:04:40.926Z,33.90
2019-01-11T09:09:44.794Z,33.90
2019-01-11T09:14:50.429Z,34.20
2019-01-11T09:19:54.261Z,34.20
2019-01-11T09:24:58.273Z,34.50
2019-01-11T09:30:02.134Z,35.20
2019-01-11T09:35:06.334Z,34.90
2019-01-11T09:40:10.198Z,35.00
2019-01-11T09:45:14.023Z,35.20
2019-01-11T09:50:20.648Z,35.20
2019-01-11T09:55:24.794Z,35.30
2019-01-11T10:00:28.620Z,35.50
2019-01-11T10:05:32.582Z,35.70
2019-01-11T10:10:36.384Z,35.60
2019-01-11T10:15:40.199Z,35.70
2019-01-11T10:20:44.010Z,35.70
2019-01-11T10:25:47.839Z,35.80
2019-01-11T10:30:52.000Z,35.90
2019-01-11T10:35:55.923Z,36.00
2019-01-11T10:40:59.713Z,36.00
2019-01-11T10:46:09.060Z,36.00
2019-01-11T10:51:12.883Z,36.30
2019-01-11T10:56:16.712Z,36.30
2019-01-11T11:01:20.498Z,36.40
2019-01-11T11:06:24.491Z,36.50
2019-01-11T11:11:28.286Z,36.70
2019-01-11T11:16:32.990Z,36.80
2019-01-11T11:21:37.271Z,36.80
2019-01-11T11:26:41.099Z,36.90
2019-01-11T11:31:44.912Z,37.00
2019-01-11T11:36:48.822Z,37.00
2019-01-11T11:41:52.976Z,37.10
2019-01-11T11:46:56.771Z,37.30
2019-01-11T11:52:00.456Z,37.10
2019-01-11T11:57:04.226Z,37.20
2019-01-11T12:02:10.028Z,37.30
2019-01-11T12:07:13.813Z,37.40
2019-01-11T12:12:17.586Z,37.40
2019-01-11T12:17:21.342Z,37.50
2019-01-11T12:22:25.078Z,37.50
2019-01-11T12:27:28.966Z,37.50
2019-01-11T12:32:32.702Z,37.50
2019-01-11T12:37:36.561Z,37.50
2019-01-11T12:42:40.294Z,37.50
2019-01-11T12:47:44.177Z,37.50
2019-01-11T12:52:47.969Z,38.10
2019-01-11T12:57:51.729Z,37.90
2019-01-11T13:02:55.541Z,37.80
2019-01-11T13:07:59.412Z,37.70
2019-01-11T13:13:03.153Z,37.60
2019-01-11T13:18:06.897Z,37.60
2019-01-11T13:23:10.660Z,37.50
2019-01-11T13:28:14.387Z,37.60
2019-01-11T13:33:18.620Z,37.40
2019-01-11T13:38:22.529Z,37.60
2019-01-11T13:43:26.275Z,37.90
2019-01-11T13:48:30.136Z,37.60
2019-01-11T13:53:33.905Z,37.60
2019-01-11T13:58:37.653Z,37.60
2019-01-11T14:03:42.696Z,37.60
2019-01-11T14:08:46.431Z,37.50
2019-01-11T14:13:50.204Z,37.50
2019-01-11T14:18:54.017Z,37.60
2019-01-11T14:23:57.762Z,37.60
2019-01-11T14:29:01.663Z,37.60
2019-01-11T14:34:05.350Z,37.80
2019-01-11T14:39:09.388Z,37.80
2019-01-11T14:44:13.163Z,37.80
2019-01-11T14:49:16.933Z,37.80
2019-01-11T14:54:20.747Z,37.70
2019-01-11T14:59:24.712Z,37.80
2019-01-11T15:04:28.390Z,37.70
2019-01-11T15:09:32.118Z,37.70
2019-01-11T15:14:37.192Z,37.70
2019-01-11T15:19:40.958Z,37.80
2019-01-11T15:24:44.710Z,37.80
2019-01-11T15:29:48.473Z,38.00
2019-01-11T15:34:52.195Z,38.10
2019-01-11T15:39:56.071Z,38.20
2019-01-11T15:45:00.155Z,37.80
2019-01-11T15:50:03.911Z,37.90
2019-01-11T15:55:09.601Z,38.10
2019-01-11T16:00:19.526Z,38.20
2019-01-11T16:05:23.292Z,38.80
2019-01-11T16:10:27.043Z,38.10
2019-01-11T16:15:58.922Z,38.30
2019-01-11T16:21:02.710Z,38.20
2019-01-11T16:26:06.615Z,38.30
2019-01-11T16:31:10.321Z,38.30
2019-01-11T16:36:14.211Z,38.30
2019-01-11T16:41:18.195Z,38.10
2019-01-11T16:46:22.049Z,38.40
2019-01-11T16:51:25.896Z,38.40
2019-01-11T16:56:29.693Z,38.40
2019-01-11T17:01:33.543Z,38.30
2019-01-11T17:06:37.303Z,38.50
2019-01-11T17:11:41.104Z,38.60
2019-01-11T17:16:44.895Z,38.50
2019-01-11T17:21:48.709Z,38.40
2019-01-11T17:26:52.526Z,38.60
2019-01-11T17:31:56.231Z,38.60
2019-01-11T17:37:19.319Z,38.80
2019-01-11T17:42:23.184Z,38.90
2019-01-11T17:47:46.303Z,39.20
2019-01-11T17:52:50.050Z,39.60
2019-01-11T17:57:53.837Z,39.80
2019-01-11T18:02:57.598Z,40.50
2019-01-11T18:08:01.340Z,40.70
2019-01-11T18:13:05.636Z,40.90
2019-01-11T18:18:09.450Z,40.70
2019-01-11T18:23:13.286Z,40.40
2019-01-11T18:28:17.066Z,40.20
2019-01-11T18:33:20.921Z,40.20
2019-01-11T18:38:24.879Z,40.30
2019-01-11T18:43:28.577Z,40.30
2019-01-11T18:48:32.349Z,40.30
2019-01-11T18:53:36.147Z,40.20
2019-01-11T18:58:39.930Z,40.20
2019-01-11T19:03:43.686Z,40.20
2019-01-11T19:08:47.567Z,40.20
2019-01-11T19:13:51.287Z,40.90
2019-01-11T19:18:55.383Z,40.40
2019-01-11T19:23:59.237Z,40.20
2019-01-11T19:29:03.044Z,40.00
2019-01-11T19:34:06.873Z,40.00
2019-01-11T19:39:10.921Z,39.70
2019-01-11T19:44:14.715Z,40.00
2019-01-11T19:49:18.494Z,39.70
2019-01-11T19:54:22.348Z,39.40
2019-01-11T19:59:26.453Z,39.40
2019-01-11T20:04:30.310Z,39.20
2019-01-11T20:09:34.437Z,39.20
2019-01-11T20:14:38.276Z,39.10
2019-01-11T20:19:42.207Z,39.20
2019-01-11T20:24:47.197Z,39.10
2019-01-11T20:29:51.038Z,39.00
2019-01-11T20:34:54.782Z,38.90
2019-01-11T20:39:58.497Z,39.90
2019-01-11T20:45:03.313Z,39.40
2019-01-11T20:50:09.140Z,39.20
2019-01-11T20:55:12.876Z,39.40
2019-01-11T21:00:19.530Z,39.40
2019-01-11T21:05:23.363Z,39.50
2019-01-11T21:10:27.091Z,39.70
2019-01-11T21:15:30.841Z,40.10
2019-01-11T21:20:34.646Z,40.00
2019-01-11T21:25:38.502Z,40.00
2019-01-11T21:30:42.335Z,41.30
2019-01-11T21:35:46.171Z,42.20
2019-01-11T21:40:50.048Z,42.00
2019-01-11T21:45:53.794Z,41.90
2019-01-11T21:50:57.663Z,42.00
2019-01-11T21:56:01.567Z,41.80
2019-01-11T22:01:05.458Z,41.70
2019-01-11T22:06:09.250Z,41.70
2019-01-11T22:11:12.982Z,41.40
2019-01-11T22:16:16.812Z,41.30
2019-01-11T22:21:20.531Z,41.30
2019-01-11T22:26:24.229Z,41.50
2019-01-11T22:31:27.978Z,41.40
2019-01-11T22:36:31.804Z,41.60
2019-01-11T22:41:35.654Z,41.70
2019-01-11T22:46:39.400Z,41.80
2019-01-11T22:51:44.531Z,41.90
2019-01-11T22:56:48.508Z,42.30
2019-01-11T23:02:05.055Z,42.80
2019-01-11T23:07:37.573Z,43.10
2019-01-11T23:12:50.082Z,43.30
2019-01-11T23:18:14.779Z,43.60
2019-01-11T23:23:18.575Z,43.40
2019-01-11T23:28:22.298Z,43.40
2019-01-11T23:33:25.980Z,43.50
2019-01-11T23:38:29.720Z,43.30
2019-01-11T23:43:33.544Z,42.70
2019-01-11T23:48:37.266Z,42.80
2019-01-11T23:53:40.950Z,42.60
2019-01-11T23:58:44.716Z,42.30
